Time;durP1;ratioP1;P1;durP2;ratioP2;P2;SDS_P1;SDS_P2;PMS_P1;PMS_P2;Temp;Humidity;BMP_temperature;BMP_pressure;BME280_temperature;BME280_humidity;BME280_pressure;Samples;Min_cycle;Max_cycle;Signal;HPM_P1;HPM_P2
2021/04/05 00:01:13;;;;;;;7.35;3.17;;;-0.50;97.10;;;;;;5090660;28;20036;-84
2021/04/05 00:03:40;;;;;;;6.63;2.92;;;-0.40;97.30;;;;;;5074676;28;20099;-84
2021/04/05 00:06:11;;;;;;;5.25;3.03;;;-0.50;97.20;;;;;;5094009;28;20028;-84
2021/04/05 00:08:37;;;;;;;7.03;3.30;;;-0.50;97.20;;;;;;5075112;28;20082;-84
2021/04/05 00:11:05;;;;;;;9.85;3.20;;;-0.40;97.20;;;;;;5091287;28;20025;-83
2021/04/05 00:13:37;;;;;;;6.55;2.95;;;-0.40;97.00;;;;;;5091785;28;20476;-84
2021/04/05 00:16:04;;;;;;;6.72;2.90;;;-0.40;96.90;;;;;;5076776;28;20044;-85
2021/04/05 00:18:30;;;;;;;11.40;3.50;;;-0.40;96.80;;;;;;5076621;28;20028;-84
2021/04/05 00:21:10;;;;;;;5.57;3.00;;;-0.50;96.80;;;;;;5057504;28;20045;-84
2021/04/05 00:24:04;;;;;;;6.65;3.35;;;-0.60;97.10;;;;;;5053228;28;20022;-85
2021/04/05 00:27:01;;;;;;;8.32;3.30;;;-0.70;97.70;;;;;;5053243;28;20025;-84
2021/04/05 00:29:48;;;;;;;7.10;3.10;;;-0.80;97.90;;;;;;5038771;28;20033;-86
2021/04/05 00:32:25;;;;;;;5.95;3.17;;;-0.90;98.20;;;;;;5055632;28;20025;-84
2021/04/05 00:35:13;;;;;;;6.85;3.08;;;-0.90;98.20;;;;;;5039913;28;20076;-84
2021/04/05 00:38:08;;;;;;;5.15;2.97;;;-0.90;98.20;;;;;;5078107;22;20052;-84
2021/04/05 00:40:39;;;;;;;6.32;3.30;;;-0.90;98.20;;;;;;5094841;28;20043;-84
2021/04/05 00:43:49;;;;;;;6.78;2.83;;;-0.50;98.70;;;;;;5080472;28;20033;-84
2021/04/05 00:47:07;;;;;;;8.07;2.80;;;-0.70;98.30;;;;;;5094847;28;20032;-84
2021/04/05 00:49:42;;;;;;;6.80;3.10;;;-1.00;98.30;;;;;;5095325;28;20021;-84
2021/04/05 00:52:29;;;;;;;10.23;3.38;;;-0.80;98.50;;;;;;5059291;28;20044;-84
2021/04/05 00:54:56;;;;;;;6.10;3.00;;;-1.10;98.60;;;;;;5078008;28;20400;-84
2021/04/05 00:57:21;;;;;;;4.63;3.08;;;-1.00;98.90;;;;;;5042917;28;20036;-84
2021/04/05 00:59:49;;;;;;;7.88;3.35;;;-1.00;98.70;;;;;;5073192;28;20032;-84
2021/04/05 01:02:16;;;;;;;9.48;3.20;;;-1.00;98.80;;;;;;5075048;28;20044;-83
2021/04/05 01:04:42;;;;;;;4.80;2.85;;;-1.00;98.70;;;;;;5058902;28;20040;-83
2021/04/05 01:07:07;;;;;;;6.00;2.88;;;-1.00;98.60;;;;;;5054175;28;20503;-84
2021/04/05 01:09:33;;;;;;;4.63;2.65;;;-1.00;98.50;;;;;;5077144;28;20046;-84
2021/04/05 01:11:59;;;;;;;8.20;3.20;;;-0.90;98.40;;;;;;5077942;28;20008;-84
2021/04/05 01:14:31;;;;;;;5.88;3.05;;;-1.00;98.40;;;;;;5076980;28;20096;-84
2021/04/05 01:17:17;;;;;;;6.63;3.10;;;-1.00;98.50;;;;;;5061583;28;20369;-84
2021/04/05 01:20:25;;;;;;;10.23;3.08;;;-1.00;98.60;;;;;;5077306;28;20028;-84
2021/04/05 01:22:53;;;;;;;5.35;3.08;;;-1.20;98.80;;;;;;5091132;28;20032;-84
2021/04/05 01:25:22;;;;;;;8.00;3.00;;;-1.10;98.70;;;;;;5060657;28;20033;-84
2021/04/05 01:27:58;;;;;;;5.15;2.80;;;-1.20;98.90;;;;;;5076913;28;20035;-84
2021/04/05 01:30:47;;;;;;;6.72;3.10;;;-1.30;98.90;;;;;;5075124;28;20044;-83
2021/04/05 01:34:04;;;;;;;6.10;3.00;;;-1.20;99.00;;;;;;5060911;28;20033;-85
2021/04/05 01:36:50;;;;;;;8.27;3.15;;;-1.20;98.90;;;;;;5095671;28;20033;-85
2021/04/05 01:39:57;;;;;;;5.78;3.10;;;-1.30;98.90;;;;;;5073788;28;20045;-84
2021/04/05 01:42:43;;;;;;;7.47;3.72;;;-1.30;99.20;;;;;;5059771;28;20048;-83
2021/04/05 01:45:32;;;;;;;6.00;3.15;;;-1.10;99.10;;;;;;5073039;28;20016;-84
2021/04/05 01:48:15;;;;;;;7.60;3.30;;;-1.20;98.80;;;;;;5073146;28;20047;-85
2021/04/05 01:50:45;;;;;;;5.93;3.35;;;-1.20;99.00;;;;;;5074138;28;20041;-84
2021/04/05 01:53:13;;;;;;;7.13;3.25;;;-1.20;99.10;;;;;;5057418;28;20033;-83
2021/04/05 01:55:39;;;;;;;6.90;3.25;;;-1.20;99.00;;;;;;5071277;28;20045;-84
2021/04/05 01:58:26;;;;;;;8.27;3.47;;;-1.20;99.10;;;;;;5058313;28;20025;-84
2021/04/05 02:01:16;;;;;;;7.65;3.25;;;-1.30;99.10;;;;;;5072772;28;20044;-84
2021/04/05 02:03:45;;;;;;;5.60;3.15;;;-0.60;99.40;;;;;;5056586;28;20041;-85
2021/04/05 02:06:20;;;;;;;5.82;3.17;;;-1.30;99.10;;;;;;5055652;28;20009;-85
2021/04/05 02:09:13;;;;;;;5.13;3.03;;;-1.40;99.20;;;;;;5056075;28;20056;-85
2021/04/05 02:11:40;;;;;;;9.98;3.50;;;-1.30;99.30;;;;;;5073150;28;20032;-84
2021/04/05 02:14:27;;;;;;;6.45;3.03;;;-1.30;99.30;;;;;;5073626;28;20041;-85
2021/04/05 02:16:54;;;;;;;5.20;3.10;;;-1.40;99.30;;;;;;5072535;28;20025;-86
2021/04/05 02:19:32;;;;;;;6.15;3.38;;;-1.40;99.30;;;;;;5068837;28;20032;-83
2021/04/05 02:21:57;;;;;;;4.13;2.90;;;-1.40;99.40;;;;;;5065377;28;20063;-86
2021/04/05 02:24:24;;;;;;;4.57;2.75;;;-1.40;99.30;;;;;;5050763;28;20025;-85
2021/04/05 02:26:51;;;;;;;4.78;2.83;;;-1.40;99.30;;;;;;5051666;28;20471;-85
2021/04/05 02:29:40;;;;;;;4.38;2.63;;;-1.40;99.20;;;;;;5060001;28;20088;-84
2021/04/05 02:32:14;;;;;;;6.85;3.33;;;-1.40;99.10;;;;;;5076778;28;20518;-84
2021/04/05 02:34:40;;;;;;;6.18;2.80;;;-1.40;99.30;;;;;;5058232;28;20096;-84
2021/04/05 02:37:16;;;;;;;4.63;2.40;;;-1.60;99.80;;;;;;5057548;28;20029;-84
2021/04/05 02:39:43;;;;;;;5.07;2.72;;;-1.50;99.90;;;;;;5060825;28;20053;-84
2021/04/05 02:42:15;;;;;;;3.88;2.63;;;-1.50;99.80;;;;;;5060266;28;20059;-84
2021/04/05 02:44:47;;;;;;;4.03;2.22;;;-1.60;99.90;;;;;;5059885;28;20056;-84
2021/04/05 02:47:14;;;;;;;5.03;2.63;;;-1.50;99.90;;;;;;5076272;28;20025;-85
2021/04/05 02:50:21;;;;;;;6.63;2.70;;;-1.60;99.70;;;;;;5079518;28;20035;-84
2021/04/05 02:53:18;;;;;;;7.50;3.08;;;-1.60;99.40;;;;;;5071321;28;20029;-84
2021/04/05 02:55:45;;;;;;;6.15;3.30;;;-1.60;99.80;;;;;;5055119;28;20041;-84
2021/04/05 02:58:19;;;;;;;4.45;2.55;;;-1.60;99.90;;;;;;5055254;28;20033;-84
2021/04/05 03:00:46;;;;;;;;;;;-1.60;99.90;;;;;;5072965;28;20082;-85
2021/04/05 03:03:17;;;;;;;4.38;2.40;;;-1.80;99.90;;;;;;5070331;28;19933;-84
2021/04/05 03:05:43;;;;;;;7.47;3.08;;;-1.80;99.90;;;;;;5065901;28;20040;-84
2021/04/05 03:08:09;;;;;;;6.18;2.88;;;-1.80;99.90;;;;;;5049585;28;20041;-84
2021/04/05 03:10:36;;;;;;;9.07;3.53;;;-1.60;99.90;;;;;;5034533;28;20062;-85
2021/04/05 03:13:03;;;;;;;8.52;3.28;;;-1.70;99.90;;;;;;5067999;28;20463;-84
2021/04/05 03:15:30;;;;;;;6.00;2.90;;;-1.80;99.90;;;;;;5068468;28;20045;-85
2021/04/05 03:18:01;;;;;;;7.80;5.50;;;-1.80;99.90;;;;;;5069362;28;20108;-84
2021/04/05 03:20:30;;;;;;;8.77;4.05;;;-1.80;99.90;;;;;;5066854;28;20098;-84
2021/04/05 03:22:56;;;;;;;5.25;2.92;;;-1.80;99.90;;;;;;5066616;28;20097;-84
2021/04/05 03:25:23;;;;;;;8.55;5.93;;;-1.80;99.90;;;;;;5066940;28;20025;-85
2021/04/05 03:27:51;;;;;;;7.45;4.22;;;-1.80;99.90;;;;;;5048602;28;20025;-84
2021/04/05 03:30:41;;;;;;;8.50;3.38;;;-1.80;99.90;;;;;;5066963;28;20025;-85
2021/04/05 03:33:38;;;;;;;7.72;3.17;;;-1.80;99.90;;;;;;5064390;28;20020;-84
2021/04/05 03:36:26;;;;;;;8.48;4.03;;;-1.80;99.90;;;;;;5047957;28;20143;-84
2021/04/05 03:38:53;;;;;;;7.53;3.40;;;-1.80;99.90;;;;;;5047217;28;20167;-84
2021/04/05 03:41:58;;;;;;;5.57;3.20;;;-1.80;99.90;;;;;;5063719;28;20460;-84
2021/04/05 03:44:36;;;;;;;7.50;3.17;;;-1.80;99.90;;;;;;5065087;28;20029;-85
2021/04/05 03:47:10;;;;;;;6.15;3.00;;;-1.80;99.90;;;;;;5062161;28;20483;-83
2021/04/05 03:50:03;;;;;;;8.70;3.95;;;-1.80;99.90;;;;;;5067188;28;20024;-85
2021/04/05 03:52:40;;;;;;;6.88;3.40;;;-1.80;99.90;;;;;;5068569;28;20021;-83
2021/04/05 03:55:09;;;;;;;7.00;3.53;;;-1.90;99.90;;;;;;5067859;28;20040;-84
2021/04/05 03:57:45;;;;;;;5.20;2.92;;;-2.00;99.90;;;;;;5067170;28;20052;-84
2021/04/05 04:00:13;;;;;;;6.75;3.08;;;-1.90;99.90;;;;;;5068853;28;20017;-85
2021/04/05 04:02:44;;;;;;;7.15;2.95;;;-2.00;99.90;;;;;;5070114;28;20036;-84
2021/04/05 04:10:13;;;;;;;7.32;3.45;;;-2.10;99.90;;;;;;5065832;28;20014;-85
2021/04/05 04:12:42;;;;;;;5.55;3.10;;;-2.00;99.90;;;;;;5065823;28;20125;-84
2021/04/05 04:15:11;;;;;;;10.32;4.97;;;-1.90;99.90;;;;;;5064482;28;20041;-84
2021/04/05 04:17:38;;;;;;;10.02;3.97;;;-2.10;99.90;;;;;;5064813;28;20032;-85
2021/04/05 04:20:14;;;;;;;8.82;5.35;;;-2.10;99.90;;;;;;5063881;28;20021;-84
2021/04/05 04:22:41;;;;;;;10.95;3.38;;;-2.10;99.90;;;;;;5049760;28;20032;-84
2021/04/05 04:25:07;;;;;;;5.93;3.40;;;-2.00;99.90;;;;;;5066578;28;20468;-84
2021/04/05 04:27:35;;;;;;;6.32;2.90;;;-2.20;99.90;;;;;;5032534;28;20031;-84
2021/04/05 04:30:01;;;;;;;6.60;3.03;;;-2.20;99.90;;;;;;5064143;28;20028;-83
2021/04/05 04:32:26;;;;;;;6.15;3.38;;;-2.30;99.90;;;;;;5046896;28;20045;-84
2021/04/05 04:34:53;;;;;;;6.03;3.47;;;-2.20;99.90;;;;;;5063674;28;20039;-85
2021/04/05 04:37:19;;;;;;;6.50;3.75;;;-2.20;99.90;;;;;;5062339;28;20040;-84
2021/04/05 04:39:45;;;;;;;6.97;3.72;;;-2.20;99.90;;;;;;5062829;28;20124;-85
2021/04/05 04:42:12;;;;;;;8.45;3.55;;;-2.20;99.90;;;;;;5063789;28;20021;-84
2021/04/05 04:44:38;;;;;;;7.78;4.10;;;-2.10;99.90;;;;;;5062379;28;20249;-84
2021/04/05 04:47:05;;;;;;;6.43;3.97;;;-2.20;99.90;;;;;;5029132;28;20507;-84
2021/04/05 04:49:30;;;;;;;10.00;4.30;;;-2.20;99.90;;;;;;5044450;28;20029;-84
2021/04/05 04:51:56;;;;;;;13.65;3.38;;;-2.20;99.90;;;;;;5043733;28;20439;-83
2021/04/05 04:54:22;;;;;;;10.43;3.65;;;-2.10;99.90;;;;;;5060211;28;20048;-83
2021/04/05 04:56:48;;;;;;;8.75;3.92;;;-2.10;99.90;;;;;;5062556;28;20029;-84
2021/04/05 04:59:16;;;;;;;12.43;4.20;;;-2.00;99.90;;;;;;5060602;28;20013;-85
2021/04/05 05:01:45;;;;;;;8.55;3.80;;;-2.00;99.90;;;;;;5043985;28;20075;-84
2021/04/05 05:04:22;;;;;;;10.23;4.18;;;-1.90;99.90;;;;;;5060567;28;20028;-85
2021/04/05 05:06:48;;;;;;;7.15;4.20;;;-1.90;99.90;;;;;;5060230;28;20029;-85
2021/04/05 05:09:15;;;;;;;10.60;4.05;;;-2.00;99.90;;;;;;5061708;28;20376;-85
2021/04/05 05:11:42;;;;;;;6.97;4.43;;;-1.90;99.90;;;;;;5045364;28;20033;-84
2021/04/05 05:14:08;;;;;;;9.25;4.25;;;-1.80;99.90;;;;;;5058659;28;20041;-85
2021/04/05 05:16:36;;;;;;;8.82;4.72;;;-1.80;99.90;;;;;;5055361;28;20029;-83
2021/04/05 05:19:02;;;;;;;9.98;4.38;;;-1.70;99.90;;;;;;5055633;28;20029;-83
2021/04/05 05:21:44;;;;;;;12.70;4.25;;;-1.70;99.90;;;;;;5059450;28;20040;-84
2021/04/05 05:24:14;;;;;;;6.95;3.90;;;-1.60;99.90;;;;;;5058299;28;20029;-84
2021/04/05 05:26:41;;;;;;;8.40;4.35;;;-1.50;99.90;;;;;;5057937;28;20029;-82
2021/04/05 05:29:09;;;;;;;10.65;4.22;;;-1.50;99.90;;;;;;5053733;28;20021;-82
2021/04/05 05:31:36;;;;;;;8.05;4.07;;;-1.40;99.80;;;;;;5054169;28;20040;-81
2021/04/05 05:34:02;;;;;;;7.65;4.25;;;-1.30;99.90;;;;;;5054176;28;20025;-84
2021/04/05 05:36:28;;;;;;;8.63;4.28;;;-1.30;99.90;;;;;;5055782;28;20039;-83
2021/04/05 05:38:55;;;;;;;9.95;4.30;;;-1.20;99.70;;;;;;5053903;28;20053;-83
2021/04/05 05:41:41;;;;;;;9.35;4.18;;;-1.10;99.80;;;;;;5053742;28;20098;-82
2021/04/05 05:44:45;;;;;;;5.55;3.55;;;-1.00;99.90;;;;;;5054386;28;20021;-84
2021/04/05 05:47:30;;;;;;;6.38;4.22;;;-0.90;99.80;;;;;;5033934;28;20044;-83
2021/04/05 05:50:23;;;;;;;10.68;3.83;;;-0.80;99.70;;;;;;5055218;28;20100;-82
2021/04/05 05:53:09;;;;;;;5.70;3.88;;;-0.70;99.40;;;;;;5056005;28;20033;-83
2021/04/05 05:55:56;;;;;;;8.52;3.75;;;-0.60;99.40;;;;;;5054137;28;20511;-84
2021/04/05 05:58:35;;;;;;;12.60;5.30;;;-0.50;98.90;;;;;;5055138;28;20441;-86
2021/04/05 06:01:23;;;;;;;20.83;11.10;;;-0.50;98.80;;;;;;5057065;28;20021;-82
2021/04/05 06:03:53;;;;;;;21.38;15.07;;;-0.30;98.80;;;;;;5058042;28;20212;-83
2021/04/05 06:06:23;;;;;;;19.23;16.88;;;-0.30;98.40;;;;;;5058014;28;20032;-85
2021/04/05 06:09:18;;;;;;;11.38;7.13;;;-0.10;98.40;;;;;;5057688;28;20093;-83
2021/04/05 06:11:50;;;;;;;7.95;4.35;;;0.00;98.40;;;;;;5051799;28;20086;-82
2021/04/05 06:14:26;;;;;;;7.47;4.00;;;0.10;98.00;;;;;;5056707;28;20029;-83
2021/04/05 06:16:58;;;;;;;9.00;4.68;;;0.20;98.00;;;;;;5056928;28;20059;-83
2021/04/05 06:19:44;;;;;;;9.23;4.88;;;0.40;97.90;;;;;;5057141;28;20049;-83
2021/04/05 06:22:15;;;;;;;11.07;4.63;;;0.50;97.20;;;;;;5057173;28;20082;-82
2021/04/05 06:25:09;;;;;;;11.48;6.80;;;0.70;97.10;;;;;;5057215;28;20120;-85
2021/04/05 06:27:41;;;;;;;8.93;5.47;;;0.80;96.90;;;;;;5056925;28;20033;-82
2021/04/05 06:30:15;;;;;;;8.13;4.57;;;1.00;96.80;;;;;;5056668;28;20071;-83
2021/04/05 06:32:53;;;;;;;8.48;4.93;;;1.10;96.70;;;;;;5056951;28;20028;-84
2021/04/05 06:35:34;;;;;;;6.05;3.88;;;1.20;96.30;;;;;;5056626;28;20033;-83
2021/04/05 06:38:24;;;;;;;10.23;4.70;;;1.40;96.20;;;;;;5056690;28;20053;-85
2021/04/05 06:40:55;;;;;;;15.95;4.53;;;1.60;96.30;;;;;;5058025;28;20021;-83
2021/04/05 06:44:07;;;;;;;9.32;4.88;;;1.70;95.80;;;;;;5056618;28;20029;-82
2021/04/05 06:47:10;;;;;;;8.15;4.03;;;1.90;95.70;;;;;;5056987;28;20083;-82
2021/04/05 06:50:13;;;;;;;7.70;3.83;;;2.10;95.30;;;;;;5056911;28;20025;-83
2021/04/05 06:53:14;;;;;;;11.27;4.25;;;2.40;95.20;;;;;;5056511;28;20114;-83
2021/04/05 06:55:55;;;;;;;6.82;3.58;;;2.70;95.40;;;;;;5055994;28;20068;-83
2021/04/05 06:58:35;;;;;;;9.40;3.25;;;3.00;93.80;;;;;;5056076;28;20028;-84
2021/04/05 07:01:42;;;;;;;90.07;50.10;;;3.20;93.00;;;;;;5057182;28;20563;-84
2021/04/05 07:04:32;;;;;;;9.93;3.60;;;3.50;92.20;;;;;;5057833;28;20045;-85
2021/04/05 07:07:14;;;;;;;4.75;2.85;;;3.60;91.00;;;;;;5057167;28;20036;-84
2021/04/05 07:10:15;;;;;;;10.25;3.05;;;4.00;90.90;;;;;;5056950;28;20040;-86
2021/04/05 07:13:04;;;;;;;5.88;3.30;;;4.30;91.20;;;;;;5023345;28;20124;-83
2021/04/05 07:15:41;;;;;;;7.28;2.75;;;4.50;89.00;;;;;;5056778;28;20124;-85
2021/04/05 07:18:31;;;;;;;7.78;2.75;;;4.80;85.50;;;;;;5056202;28;20447;-85
2021/04/05 07:21:35;;;;;;;6.13;2.63;;;4.90;84.60;;;;;;5056848;28;20036;-86
2021/04/05 07:24:32;;;;;;;7.88;2.40;;;5.20;84.80;;;;;;5056180;28;20468;-84
2021/04/05 07:27:04;;;;;;;4.90;2.20;;;5.40;74.60;;;;;;5056087;28;20021;-84
2021/04/05 07:29:48;;;;;;;6.43;2.50;;;5.70;73.50;;;;;;5055749;28;20036;-84
2021/04/05 07:32:32;;;;;;;6.75;2.40;;;5.80;72.00;;;;;;5056452;28;20086;-85
2021/04/05 07:35:14;;;;;;;3.30;2.20;;;6.00;69.50;;;;;;5055907;28;20511;-84
2021/04/05 07:38:06;;;;;;;6.15;3.38;;;6.20;65.90;;;;;;5057650;28;20460;-86
2021/04/05 07:41:22;;;;;;;4.32;2.40;;;6.50;61.10;;;;;;5059060;28;20384;-87
2021/04/05 07:44:03;;;;;;;3.40;1.97;;;6.70;61.20;;;;;;5024320;28;20035;-85
2021/04/05 07:46:42;;;;;;;3.53;1.65;;;7.00;60.80;;;;;;5048878;28;20036;-88
2021/04/05 07:49:33;;;;;;;3.75;1.80;;;7.20;56.60;;;;;;5058400;28;20172;-83
2021/04/05 07:52:04;;;;;;;4.03;1.33;;;7.40;56.00;;;;;;5059160;28;20033;-86
2021/04/05 07:54:34;;;;;;;4.35;1.48;;;7.60;55.60;;;;;;5060213;28;20384;-84
2021/04/05 07:57:06;;;;;;;3.22;1.98;;;7.70;54.40;;;;;;5061094;28;20032;-82
2021/04/05 08:00:12;;;;;;;4.28;1.17;;;7.80;54.30;;;;;;5059698;28;20388;-85
2021/04/05 08:02:40;;;;;;;4.10;2.00;;;8.00;55.80;;;;;;5058442;28;20402;-85
2021/04/05 08:05:44;;;;;;;2.38;1.10;;;8.30;54.30;;;;;;5058917;28;20021;-87
2021/04/05 08:08:25;;;;;;;5.20;2.53;;;8.50;53.20;;;;;;5058597;28;20115;-84
2021/04/05 08:11:16;;;;;;;3.88;1.63;;;8.80;53.60;;;;;;5057763;28;20025;-84
2021/04/05 08:13:54;;;;;;;3.97;1.98;;;9.00;51.90;;;;;;5057525;28;20032;-83
2021/04/05 08:16:38;;;;;;;1.77;1.15;;;9.10;52.20;;;;;;5057422;28;20083;-84
2021/04/05 08:19:21;;;;;;;3.55;2.08;;;9.20;48.70;;;;;;5057667;28;20023;-85
2021/04/05 08:22:13;;;;;;;3.30;1.70;;;9.20;50.50;;;;;;5057081;28;20043;-84
2021/04/05 08:24:47;;;;;;;3.08;1.50;;;9.40;50.70;;;;;;5074106;28;20029;-82
2021/04/05 08:27:19;;;;;;;3.92;1.50;;;9.60;50.80;;;;;;5056752;28;20028;-83
2021/04/05 08:29:54;;;;;;;4.28;1.90;;;9.60;49.30;;;;;;5056872;28;20112;-83
2021/04/05 08:32:41;;;;;;;3.30;1.70;;;9.60;48.40;;;;;;5056895;28;20029;-84
2021/04/05 08:35:07;;;;;;;4.18;1.33;;;9.70;48.20;;;;;;5056953;28;20484;-86
2021/04/05 08:37:59;;;;;;;3.33;1.27;;;9.80;46.90;;;;;;5056957;28;20032;-86
2021/04/05 08:40:30;;;;;;;2.97;1.30;;;9.90;48.60;;;;;;5055653;28;20037;-86
2021/04/05 08:43:37;;;;;;;3.20;1.27;;;10.10;49.00;;;;;;5072612;28;20149;-87
2021/04/05 08:46:16;;;;;;;2.35;1.42;;;10.20;47.80;;;;;;5057094;28;20024;-84
2021/04/05 08:48:45;;;;;;;15.68;9.68;;;10.30;48.00;;;;;;5057153;28;20496;-85
2021/04/05 08:51:18;;;;;;;8.80;5.35;;;10.40;49.90;;;;;;5056955;28;20016;-88
2021/04/05 08:53:55;;;;;;;5.07;3.13;;;10.50;49.90;;;;;;5057128;28;20025;-83
2021/04/05 08:56:24;;;;;;;7.47;1.88;;;10.70;49.40;;;;;;5056632;28;20043;-85
2021/04/05 08:59:04;;;;;;;6.68;2.70;;;10.80;48.70;;;;;;5056428;28;20021;-87
2021/04/05 09:01:40;;;;;;;4.57;3.95;;;10.90;49.90;;;;;;5056602;28;20154;-86
2021/04/05 09:04:08;;;;;;;6.97;6.25;;;11.00;49.40;;;;;;5057211;28;20026;-86
2021/04/05 09:06:47;;;;;;;10.43;9.13;;;11.30;48.00;;;;;;5057035;28;20471;-83
2021/04/05 09:09:15;;;;;;;2.85;2.10;;;11.30;47.30;;;;;;5057390;28;20119;-84
2021/04/05 09:11:42;;;;;;;6.93;6.07;;;11.30;45.90;;;;;;5058071;28;20016;-87
2021/04/05 09:14:11;;;;;;;8.23;2.47;;;11.40;48.60;;;;;;5057258;28;20103;-87
2021/04/05 09:16:58;;;;;;;4.82;3.10;;;11.60;47.00;;;;;;5058161;28;20024;-86
2021/04/05 09:19:35;;;;;;;5.45;4.57;;;11.60;46.20;;;;;;5057328;28;20017;-85
2021/04/05 09:22:31;;;;;;;3.92;3.22;;;11.70;47.40;;;;;;5060456;28;20029;-84
2021/04/05 09:25:10;;;;;;;6.82;2.88;;;11.70;46.30;;;;;;5055929;28;20379;-82
2021/04/05 09:27:38;;;;;;;6.80;2.85;;;11.70;46.70;;;;;;5055238;28;20463;-80
2021/04/05 09:30:34;;;;;;;2.45;1.60;;;11.70;47.40;;;;;;5055265;28;20028;-79
2021/04/05 09:33:34;;;;;;;5.65;2.60;;;11.80;46.80;;;;;;5055287;28;20028;-81
2021/04/05 09:36:33;;;;;;;4.55;2.75;;;11.70;46.70;;;;;;5060012;28;20131;-87
2021/04/05 09:39:32;;;;;;;4.20;2.15;;;11.90;45.90;;;;;;5059967;28;20041;-82
2021/04/05 09:42:24;;;;;;;4.90;2.78;;;12.00;45.40;;;;;;5055009;28;20395;-84
2021/04/05 09:45:11;;;;;;;6.85;3.25;;;12.10;46.10;;;;;;5060239;28;20092;-82
2021/04/05 09:47:45;;;;;;;3.55;2.03;;;12.30;46.30;;;;;;5060015;28;20545;-82
2021/04/05 09:50:31;;;;;;;5.75;2.42;;;12.50;47.70;;;;;;5060215;28;20024;-85
2021/04/05 09:53:11;;;;;;;8.32;3.55;;;12.60;44.70;;;;;;5059961;28;20032;-87
2021/04/05 09:55:41;;;;;;;4.82;2.35;;;12.60;44.90;;;;;;5059911;28;20522;-85
2021/04/05 09:58:10;;;;;;;4.53;2.20;;;12.60;44.00;;;;;;5059643;28;20460;-83
2021/04/05 10:00:38;;;;;;;13.70;5.57;;;12.70;43.80;;;;;;5060117;28;20078;-84
2021/04/05 10:03:04;;;;;;;25.33;12.60;;;12.70;44.40;;;;;;5059904;28;20020;-84
2021/04/05 10:05:34;;;;;;;42.40;21.77;;;12.70;44.80;;;;;;5059439;28;20437;-79
2021/04/05 10:08:01;;;;;;;20.65;11.82;;;12.80;43.70;;;;;;5059579;28;20025;-86
2021/04/05 10:10:29;;;;;;;17.25;9.85;;;12.90;43.40;;;;;;5059507;28;20020;-85
2021/04/05 10:12:58;;;;;;;16.38;9.60;;;12.90;43.80;;;;;;5059219;28;20056;-84
2021/04/05 10:15:26;;;;;;;30.55;18.17;;;13.10;43.30;;;;;;5059763;28;20472;-85
2021/04/05 10:17:55;;;;;;;4.40;2.67;;;13.20;43.70;;;;;;5065458;28;20073;-81
2021/04/05 10:20:30;;;;;;;7.63;4.05;;;13.30;48.60;;;;;;5068504;28;20029;-80
2021/04/05 10:23:01;;;;;;;11.32;7.43;;;13.40;44.90;;;;;;5074339;28;20090;-80
2021/04/05 10:25:29;;;;;;;3.85;2.38;;;13.70;43.10;;;;;;5061425;28;20112;-83
2021/04/05 10:27:58;;;;;;;12.25;8.93;;;13.90;42.70;;;;;;5059513;28;20036;-88
2021/04/05 10:30:33;;;;;;;6.25;2.72;;;14.00;41.10;;;;;;5059651;28;20028;-84
2021/04/05 10:33:06;;;;;;;2.72;1.95;;;13.90;39.90;;;;;;5060697;28;20042;-84
2021/04/05 10:35:36;;;;;;;2.85;1.77;;;13.90;41.00;;;;;;5060307;28;20036;-85
2021/04/05 10:38:03;;;;;;;3.75;1.65;;;13.90;41.50;;;;;;5059462;28;20052;-87
2021/04/05 10:40:30;;;;;;;3.85;1.75;;;13.90;41.20;;;;;;5059799;28;20490;-87
2021/04/05 10:43:04;;;;;;;3.13;1.70;;;13.90;40.50;;;;;;5059701;28;20032;-86
2021/04/05 10:45:34;;;;;;;3.33;1.50;;;13.80;39.60;;;;;;5059260;28;20059;-86
2021/04/05 10:48:24;;;;;;;9.27;1.80;;;14.00;40.50;;;;;;5058764;28;20024;-86
2021/04/05 10:51:05;;;;;;;3.15;1.80;;;14.20;42.20;;;;;;5058964;28;20537;-87
2021/04/05 10:53:36;;;;;;;2.45;1.60;;;14.30;41.50;;;;;;5059628;28;20024;-87
2021/04/05 10:56:05;;;;;;;3.72;1.70;;;14.40;40.70;;;;;;5058843;28;20040;-84
2021/04/05 10:58:41;;;;;;;2.35;1.40;;;14.40;40.50;;;;;;5058671;28;20029;-86
2021/04/05 11:01:09;;;;;;;3.40;1.85;;;14.40;38.70;;;;;;5058565;28;20020;-86
2021/04/05 11:03:40;;;;;;;2.92;1.60;;;14.30;38.70;;;;;;5058083;28;20028;-87
2021/04/05 11:06:09;;;;;;;2.25;1.60;;;14.40;37.60;;;;;;5040893;28;20029;-87
2021/04/05 11:08:36;;;;;;;2.28;1.58;;;14.40;39.20;;;;;;5041084;28;20032;-86
2021/04/05 11:11:04;;;;;;;4.32;1.70;;;14.20;39.40;;;;;;5041127;28;20025;-85
2021/04/05 11:13:33;;;;;;;4.47;1.70;;;14.40;41.90;;;;;;5056766;28;20024;-84
2021/04/05 11:16:00;;;;;;;3.20;1.60;;;14.60;39.90;;;;;;5045765;28;20029;-84
2021/04/05 11:18:33;;;;;;;2.95;1.77;;;14.60;37.80;;;;;;5063315;28;20044;-87
2021/04/05 11:21:07;;;;;;;2.50;1.65;;;14.60;39.80;;;;;;5084841;28;20028;-87
2021/04/05 11:23:40;;;;;;;2.95;1.38;;;14.80;38.90;;;;;;5088303;28;20029;-88
2021/04/05 11:26:12;;;;;;;4.57;1.90;;;14.70;38.70;;;;;;5073644;28;20052;-86
2021/04/05 11:28:41;;;;;;;5.68;2.20;;;14.70;38.40;;;;;;5061649;28;20039;-87
2021/04/05 11:31:17;;;;;;;2.50;1.42;;;14.70;39.10;;;;;;5079342;28;20050;-87
2021/04/05 11:33:57;;;;;;;3.90;1.60;;;14.80;38.20;;;;;;5067631;28;20377;-86
2021/04/05 11:36:41;;;;;;;5.78;1.30;;;14.90;39.40;;;;;;5066705;28;20033;-87
2021/04/05 11:39:11;;;;;;;2.13;1.38;;;15.10;38.00;;;;;;5046655;28;20076;-84
2021/04/05 11:41:41;;;;;;;2.95;1.70;;;15.10;37.80;;;;;;5063942;28;20025;-84
2021/04/05 11:44:09;;;;;;;3.55;1.77;;;15.20;38.70;;;;;;5047314;28;20025;-86
2021/04/05 11:46:38;;;;;;;3.47;1.42;;;15.10;38.50;;;;;;5051163;28;20033;-87
2021/04/05 11:49:11;;;;;;;35.88;15.77;;;15.10;38.10;;;;;;5051156;28;20634;-85
2021/04/05 11:51:47;;;;;;;8.10;3.03;;;15.10;38.60;;;;;;5034790;28;20037;-87
2021/04/05 11:54:32;;;;;;;4.00;1.88;;;14.90;38.70;;;;;;5050786;28;20030;-87
2021/04/05 11:57:03;;;;;;;6.57;1.93;;;14.90;39.00;;;;;;5034649;28;20034;-86
2021/04/05 11:59:31;;;;;;;4.22;1.60;;;15.10;37.70;;;;;;5035697;28;20302;-85
2021/04/05 12:02:07;;;;;;;2.67;1.60;;;15.20;39.00;;;;;;5034773;28;20017;-86
2021/04/05 12:04:39;;;;;;;2.63;1.60;;;15.30;38.50;;;;;;5054753;28;20021;-85
2021/04/05 12:07:23;;;;;;;2.42;1.27;;;15.30;37.90;;;;;;5056213;28;20029;-88
2021/04/05 12:10:16;;;;;;;2.95;1.48;;;15.50;37.70;;;;;;5055106;28;20155;-87
2021/04/05 12:12:45;;;;;;;2.78;1.40;;;15.70;38.20;;;;;;5056950;28;20021;-87
2021/04/05 12:15:16;;;;;;;2.85;1.58;;;15.70;37.30;;;;;;5055269;28;20567;-88
2021/04/05 12:17:52;;;;;;;3.40;1.80;;;15.60;37.80;;;;;;5055138;28;20021;-89
2021/04/05 12:20:23;;;;;;;3.45;1.63;;;15.60;38.10;;;;;;5056254;28;20038;-87
2021/04/05 12:22:58;;;;;;;2.55;1.15;;;15.70;36.90;;;;;;5055601;28;20048;-84
2021/04/05 12:25:29;;;;;;;4.25;1.40;;;15.80;38.30;;;;;;5055730;28;20089;-85
2021/04/05 12:28:02;;;;;;;2.60;1.52;;;15.90;36.70;;;;;;5055915;28;20033;-86
2021/04/05 12:30:30;;;;;;;3.05;1.50;;;16.00;37.10;;;;;;5056441;28;20188;-86
2021/04/05 12:32:58;;;;;;;3.15;1.50;;;16.10;37.20;;;;;;5056911;28;20032;-87
2021/04/05 12:35:25;;;;;;;7.75;1.52;;;16.20;37.00;;;;;;5055740;28;20087;-88
2021/04/05 12:38:00;;;;;;;5.18;1.48;;;16.10;36.20;;;;;;5056544;28;20021;-86
2021/04/05 12:40:28;;;;;;;7.45;1.70;;;15.80;36.60;;;;;;5075668;28;20056;-86
2021/04/05 12:43:01;;;;;;;3.90;1.40;;;15.80;37.50;;;;;;5073692;28;20076;-86
2021/04/05 12:45:29;;;;;;;2.45;1.50;;;15.80;36.90;;;;;;5073814;28;20039;-88
2021/04/05 12:47:56;;;;;;;1.77;1.10;;;15.80;37.30;;;;;;5073617;28;20077;-86
2021/04/05 12:50:25;;;;;;;5.07;1.60;;;15.90;36.40;;;;;;5074232;28;20031;-88
2021/04/05 12:52:57;;;;;;;4.28;1.25;;;15.90;36.80;;;;;;5066021;28;20056;-86
2021/04/05 12:55:24;;;;;;;4.15;1.20;;;16.00;37.70;;;;;;5056379;28;20180;-86
2021/04/05 12:57:55;;;;;;;3.55;1.45;;;15.90;36.00;;;;;;5075109;28;20101;-87
2021/04/05 13:00:22;;;;;;;2.63;1.40;;;15.90;36.10;;;;;;5075462;28;20028;-86
2021/04/05 13:03:19;;;;;;;2.28;1.35;;;16.00;36.20;;;;;;5074815;28;20028;-88
2021/04/05 13:06:10;;;;;;;4.40;1.35;;;16.20;35.60;;;;;;5064051;28;20025;-86
2021/04/05 13:08:59;;;;;;;2.42;1.42;;;16.20;36.30;;;;;;5072657;28;20024;-86
2021/04/05 13:11:43;;;;;;;1.92;1.15;;;16.20;36.50;;;;;;5073269;28;20047;-86
2021/04/05 13:14:19;;;;;;;4.68;1.85;;;16.20;36.00;;;;;;5073603;28;20035;-87
2021/04/05 13:17:05;;;;;;;2.75;1.48;;;16.30;36.30;;;;;;5072654;28;20082;-86
2021/04/05 13:19:37;;;;;;;;;;;16.40;37.30;;;;;;5074165;28;20025;-88
2021/04/05 13:22:04;;;;;;;2.15;1.40;;;16.50;36.40;;;;;;5065828;28;19915;-89
2021/04/05 13:24:34;;;;;;;1.48;1.20;;;16.50;35.30;;;;;;5036325;28;20120;-87
2021/04/05 13:27:04;;;;;;;2.10;1.20;;;16.30;36.50;;;;;;5034462;28;20033;-88
2021/04/05 13:29:36;;;;;;;3.13;1.40;;;16.30;36.60;;;;;;5035790;28;20082;-86
2021/04/05 13:32:06;;;;;;;3.53;1.10;;;16.20;36.60;;;;;;5034649;28;20021;-88
2021/04/05 13:34:38;;;;;;;2.78;1.35;;;16.20;36.70;;;;;;5033878;28;20468;-88
2021/04/05 13:37:09;;;;;;;5.85;1.70;;;16.30;37.20;;;;;;5034047;28;20381;-88
2021/04/05 13:39:35;;;;;;;5.13;2.30;;;16.30;36.90;;;;;;5033665;28;20050;-84
2021/04/05 13:42:25;;;;;;;3.22;1.60;;;16.10;37.10;;;;;;5050832;28;20492;-89